Time;durP1;ratioP1;P1;durP2;ratioP2;P2;SDS_P1;SDS_P2;PMS_P1;PMS_P2;Temp;Humidity;BMP_temperature;BMP_pressure;BME280_temperature;BME280_humidity;BME280_pressure;Samples;Min_cycle;Max_cycle;Signal;HPM_P1;HPM_P2
2023/01/01 00:01:44;;;;;;;26.60;10.00;;;13.70;99.90;;;;;;6369683;22;20057;-93
2023/01/01 00:04:12;;;;;;;22.70;8.68;;;13.70;99.90;;;;;;6370365;22;20009;-93
2023/01/01 00:06:38;;;;;;;23.02;8.95;;;13.60;99.90;;;;;;6370433;22;20010;-94
2023/01/01 00:11:50;;;;;;;17.17;6.93;;;13.60;99.90;;;;;;6395653;22;20021;-95
2023/01/01 00:14:16;;;;;;;19.73;7.90;;;13.60;99.90;;;;;;6369943;22;20387;-94
2023/01/01 00:16:42;;;;;;;21.33;7.30;;;13.60;99.90;;;;;;6369135;22;20104;-94
2023/01/01 00:19:07;;;;;;;23.13;7.13;;;13.60;99.90;;;;;;6370022;22;20013;-94
2023/01/01 00:21:33;;;;;;;24.17;6.82;;;13.60;99.90;;;;;;6370548;22;20070;-92
2023/01/01 00:23:59;;;;;;;24.25;7.30;;;13.50;99.90;;;;;;6368478;22;20010;-94
2023/01/01 00:26:25;;;;;;;24.85;7.88;;;13.50;99.90;;;;;;6369999;22;20024;-93
2023/01/01 00:28:50;;;;;;;18.10;7.78;;;13.50;99.90;;;;;;6368818;22;20018;-94
2023/01/01 00:31:19;;;;;;;19.30;7.80;;;13.40;99.90;;;;;;6369036;22;20021;-92
2023/01/01 00:33:45;;;;;;;26.77;10.45;;;13.40;99.90;;;;;;6369667;22;20025;-94
2023/01/01 00:36:14;;;;;;;25.27;9.43;;;13.30;99.90;;;;;;6346439;22;20066;-94
2023/01/01 00:38:41;;;;;;;19.27;10.05;;;13.30;99.90;;;;;;6185091;22;20026;-93
2023/01/01 00:41:07;;;;;;;25.10;11.82;;;13.30;99.90;;;;;;6185380;22;20069;-94
2023/01/01 00:43:33;;;;;;;28.90;13.20;;;13.30;99.90;;;;;;6183701;23;20016;-93
2023/01/01 00:45:58;;;;;;;29.05;13.68;;;13.30;99.90;;;;;;6185783;23;20351;-93
2023/01/01 00:48:24;;;;;;;29.83;13.27;;;13.30;99.90;;;;;;6185295;23;20088;-93
2023/01/01 00:50:51;;;;;;;23.52;13.05;;;13.30;99.90;;;;;;6184443;23;20020;-93
2023/01/01 00:53:18;;;;;;;27.67;13.40;;;13.20;99.90;;;;;;6185402;23;20463;-93
2023/01/01 00:55:44;;;;;;;29.42;13.95;;;13.20;99.90;;;;;;6184871;23;20012;-91
2023/01/01 00:58:10;;;;;;;27.35;13.60;;;13.20;99.90;;;;;;6184739;23;20019;-92
2023/01/01 01:00:36;;;;;;;33.47;13.10;;;13.20;99.90;;;;;;6185525;23;20009;-92
2023/01/01 01:03:02;;;;;;;28.58;14.10;;;13.10;99.90;;;;;;6184676;22;20419;-92
2023/01/01 01:05:28;;;;;;;29.98;13.27;;;13.10;99.90;;;;;;6184209;23;20016;-92
2023/01/01 01:07:54;;;;;;;26.08;12.80;;;13.10;99.90;;;;;;6184280;23;20451;-86
2023/01/01 01:10:21;;;;;;;25.02;13.05;;;13.10;99.90;;;;;;6212720;23;20016;-93
2023/01/01 01:12:46;;;;;;;28.05;14.00;;;13.10;99.90;;;;;;6182509;23;20008;-92
2023/01/01 01:15:12;;;;;;;30.35;15.93;;;13.10;99.90;;;;;;6185437;23;20112;-93
2023/01/01 01:17:38;;;;;;;28.40;15.50;;;13.10;99.90;;;;;;6185101;23;20104;-92
2023/01/01 01:20:05;;;;;;;37.35;17.45;;;13.10;99.90;;;;;;6184179;23;20020;-91
2023/01/01 01:22:30;;;;;;;29.58;17.77;;;13.00;99.90;;;;;;6185605;23;20020;-93
2023/01/01 01:24:56;;;;;;;37.10;18.67;;;13.00;99.90;;;;;;6184325;23;20016;-91
2023/01/01 01:27:22;;;;;;;35.33;18.65;;;13.00;99.90;;;;;;6183843;23;20019;-92
2023/01/01 01:29:48;;;;;;;32.20;18.63;;;12.90;99.90;;;;;;6184443;22;20352;-92
2023/01/01 01:32:14;;;;;;;31.67;18.70;;;12.80;99.90;;;;;;6185204;23;20020;-93
2023/01/01 01:34:39;;;;;;;33.75;20.92;;;12.80;99.90;;;;;;6184492;23;20016;-93
2023/01/01 01:37:05;;;;;;;35.65;20.40;;;12.80;99.90;;;;;;6277206;22;20051;-92
2023/01/01 01:39:31;;;;;;;38.20;21.70;;;12.70;99.90;;;;;;6369675;22;20025;-92
2023/01/01 01:41:57;;;;;;;35.55;20.77;;;12.80;99.90;;;;;;6366915;22;20025;-91
2023/01/01 01:44:45;;;;;;;48.00;22.65;;;12.70;99.90;;;;;;6369784;22;20039;-93
2023/01/01 01:47:15;;;;;;;41.58;24.13;;;12.70;99.90;;;;;;6368600;22;20021;-94
2023/01/01 01:49:42;;;;;;;38.85;22.70;;;12.70;99.90;;;;;;6369001;22;20014;-92
2023/01/01 01:52:08;;;;;;;41.45;22.48;;;12.70;99.90;;;;;;6368973;22;20066;-92
2023/01/01 01:54:36;;;;;;;46.70;24.30;;;12.60;99.90;;;;;;6368155;22;20014;-92
2023/01/01 01:57:04;;;;;;;46.97;25.13;;;12.60;99.90;;;;;;6368194;22;20328;-90
2023/01/01 01:59:36;;;;;;;40.92;26.92;;;12.60;99.90;;;;;;6369001;22;20018;-91
2023/01/01 02:02:02;;;;;;;47.70;28.08;;;12.50;99.90;;;;;;6368472;22;20494;-92
2023/01/01 02:04:28;;;;;;;44.50;29.58;;;12.50;99.90;;;;;;6368767;22;20050;-91
2023/01/01 02:06:54;;;;;;;51.95;29.75;;;12.50;99.90;;;;;;6368704;22;20032;-91
2023/01/01 02:09:21;;;;;;;47.10;32.45;;;12.40;99.90;;;;;;6368670;22;20051;-91
2023/01/01 02:11:46;;;;;;;46.45;32.67;;;12.40;99.90;;;;;;6367384;22;20046;-91
2023/01/01 02:14:12;;;;;;;56.13;33.92;;;12.30;99.90;;;;;;6369590;22;20105;-92
2023/01/01 02:16:45;;;;;;;47.17;33.45;;;12.30;99.90;;;;;;6368442;22;20029;-91
2023/01/01 02:19:22;;;;;;;56.35;34.53;;;12.30;99.90;;;;;;6369528;22;20025;-91
2023/01/01 02:22:14;;;;;;;49.80;34.05;;;12.30;99.90;;;;;;6368834;22;20014;-91
2023/01/01 02:24:41;;;;;;;53.65;34.13;;;12.20;99.90;;;;;;6369344;22;20013;-91
2023/01/01 02:27:20;;;;;;;53.55;36.53;;;12.20;99.90;;;;;;6368963;22;20329;-91
2023/01/01 02:29:51;;;;;;;59.58;35.92;;;12.20;99.90;;;;;;6367641;22;20022;-91
2023/01/01 02:32:30;;;;;;;51.63;35.13;;;12.10;99.90;;;;;;6369249;22;20010;-92
2023/01/01 02:35:37;;;;;;;45.08;31.55;;;12.10;99.90;;;;;;6368591;22;20017;-92
2023/01/01 02:37:58;;;;;;;53.00;31.60;;;12.20;99.90;;;;;;6393507;22;20022;-92
2023/01/01 02:40:26;;;;;;;51.90;29.67;;;12.20;99.90;;;;;;6371711;22;20098;-92
2023/01/01 02:42:54;;;;;;;44.55;27.15;;;12.30;99.90;;;;;;6369360;22;20010;-90
2023/01/01 02:45:20;;;;;;;40.45;26.92;;;12.20;99.90;;;;;;6370802;22;20059;-92
2023/01/01 02:47:46;;;;;;;47.03;27.85;;;12.30;99.90;;;;;;6369921;22;20017;-91
2023/01/01 02:50:19;;;;;;;43.80;24.65;;;12.10;99.90;;;;;;6370514;22;20046;-91
2023/01/01 02:53:17;;;;;;;39.45;24.35;;;12.20;99.90;;;;;;6370548;22;20060;-91
2023/01/01 02:55:48;;;;;;;39.35;23.73;;;12.30;99.90;;;;;;6370808;22;20021;-91
2023/01/01 03:01:11;;;;;;;44.15;20.45;;;12.30;99.90;;;;;;6396542;22;20022;-89
2023/01/01 03:03:48;;;;;;;39.88;20.92;;;12.30;99.90;;;;;;6371237;22;20199;-91
2023/01/01 03:06:26;;;;;;;33.40;18.80;;;12.30;99.90;;;;;;6369982;22;20104;-91
2023/01/01 03:09:16;;;;;;;36.78;18.27;;;12.30;99.90;;;;;;6370396;22;20014;-91
2023/01/01 03:11:51;;;;;;;33.58;18.20;;;12.30;99.90;;;;;;6369839;22;20018;-92
2023/01/01 03:14:39;;;;;;;33.83;17.05;;;12.20;99.90;;;;;;6370436;22;20024;-93
2023/01/01 03:17:19;;;;;;;30.73;16.85;;;12.20;99.90;;;;;;6370035;22;20024;-91
2023/01/01 03:19:48;;;;;;;33.25;16.05;;;12.20;99.90;;;;;;6368716;22;20014;-90
2023/01/01 03:22:16;;;;;;;30.98;15.73;;;12.20;99.90;;;;;;6370899;22;20060;-89
2023/01/01 03:24:45;;;;;;;33.40;14.02;;;12.20;99.90;;;;;;6369668;22;20036;-89
2023/01/01 03:27:27;;;;;;;30.40;15.60;;;12.10;99.90;;;;;;6369185;22;20014;-92
2023/01/01 03:29:56;;;;;;;33.65;15.38;;;12.10;99.90;;;;;;6370451;22;20043;-92
2023/01/01 03:32:59;;;;;;;34.75;15.65;;;12.00;99.90;;;;;;6369892;22;20089;-96
2023/01/01 03:35:19;;;;;;;42.42;17.98;;;11.90;99.90;;;;;;6396904;22;20120;-93
2023/01/01 03:37:50;;;;;;;36.08;17.77;;;11.80;99.90;;;;;;6369308;22;20070;-94
2023/01/01 03:40:21;;;;;;;30.38;18.38;;;11.80;99.90;;;;;;6372048;22;20021;-96
2023/01/01 03:42:56;;;;;;;37.25;17.73;;;11.70;99.90;;;;;;6378353;22;20098;-96
2023/01/01 03:45:27;;;;;;;33.70;17.40;;;11.70;99.90;;;;;;6376091;22;20065;-95
2023/01/01 03:47:54;;;;;;;31.67;13.90;;;11.60;99.90;;;;;;6369375;22;20021;-92
2023/01/01 03:50:48;;;;;;;25.88;13.73;;;11.60;99.90;;;;;;6370636;22;20427;-95
2023/01/01 03:53:38;;;;;;;33.03;14.60;;;11.60;99.90;;;;;;6370765;22;20458;-93
2023/01/01 03:56:15;;;;;;;26.52;14.65;;;11.50;99.90;;;;;;6372866;22;20018;-96
2023/01/01 03:58:53;;;;;;;30.33;14.23;;;11.30;99.90;;;;;;6377060;22;20117;-96
2023/01/01 04:07:36;;;;;;;31.30;12.02;;;11.60;99.90;;;;;;6430129;22;20402;-95
2023/01/01 04:10:16;;;;;;;22.02;8.95;;;11.30;99.90;;;;;;6377215;22;20024;-95
2023/01/01 04:12:56;;;;;;;21.48;8.32;;;11.40;99.90;;;;;;6383102;22;20092;-96
2023/01/01 04:15:26;;;;;;;17.05;7.93;;;11.40;99.90;;;;;;6387308;22;20056;-95
2023/01/01 04:17:55;;;;;;;18.10;7.30;;;11.40;99.90;;;;;;6387165;22;20024;-96
2023/01/01 04:20:22;;;;;;;12.80;6.18;;;11.30;99.90;;;;;;6414885;22;20392;-95
2023/01/01 04:22:59;;;;;;;17.75;5.90;;;11.40;99.90;;;;;;6382820;22;20019;-96
2023/01/01 04:25:25;;;;;;;14.88;5.18;;;11.50;99.90;;;;;;6380819;22;20096;-95
2023/01/01 04:27:54;;;;;;;15.63;5.05;;;11.50;99.90;;;;;;6380493;22;20044;-95
2023/01/01 04:30:21;;;;;;;20.25;5.30;;;11.50;99.90;;;;;;6376218;22;20059;-96
2023/01/01 04:32:46;;;;;;;18.40;5.25;;;11.50;99.90;;;;;;6375492;22;20009;-96
2023/01/01 04:35:13;;;;;;;17.85;5.25;;;11.50;99.90;;;;;;6382079;22;20047;-96
2023/01/01 04:37:43;;;;;;;19.00;5.03;;;12.00;99.90;;;;;;6378345;22;20033;-96
2023/01/01 04:40:11;;;;;;;16.25;4.50;;;11.60;99.90;;;;;;6375647;22;20017;-94
2023/01/01 04:42:36;;;;;;;20.17;4.65;;;11.60;99.90;;;;;;6374789;22;20481;-95
2023/01/01 04:45:02;;;;;;;25.08;5.63;;;11.50;99.90;;;;;;6382415;22;20017;-96
2023/01/01 04:47:31;;;;;;;20.92;4.95;;;11.30;99.90;;;;;;6384425;22;20037;-96
2023/01/01 04:49:57;;;;;;;18.38;4.40;;;11.50;99.90;;;;;;6379115;22;20024;-96
2023/01/01 04:52:27;;;;;;;20.02;5.30;;;11.50;99.90;;;;;;6378608;22;20036;-96
2023/01/01 04:54:59;;;;;;;18.30;5.88;;;11.60;99.90;;;;;;6381318;22;20052;-95
2023/01/01 04:57:28;;;;;;;27.80;5.93;;;11.50;99.90;;;;;;6387749;22;20339;-95
2023/01/01 05:00:10;;;;;;;;;;;;;;;;;;;;;
2023/01/01 05:02:54;;;;;;;20.83;5.60;;;11.50;99.90;;;;;;6411991;22;20045;-96
2023/01/01 05:05:22;;;;;;;20.85;6.03;;;11.50;99.90;;;;;;6385512;22;20022;-96
2023/01/01 05:07:50;;;;;;;21.05;6.32;;;11.40;99.90;;;;;;6377985;22;20045;-96
2023/01/01 05:10:39;;;;;;;23.20;5.65;;;11.20;99.90;;;;;;6368810;22;20097;-96
2023/01/01 05:13:08;;;;;;;19.75;5.78;;;11.30;99.90;;;;;;6197164;22;20043;-94
2023/01/01 05:15:36;;;;;;;19.30;4.45;;;11.40;99.90;;;;;;6352952;22;20011;-96
2023/01/01 05:18:02;;;;;;;17.98;4.28;;;11.50;99.90;;;;;;6350188;22;20444;-95
2023/01/01 05:20:27;;;;;;;16.80;4.35;;;11.40;99.90;;;;;;6218369;22;20103;-96
2023/01/01 05:22:53;;;;;;;17.83;4.13;;;11.40;99.90;;;;;;6350665;22;20016;-96
2023/01/01 05:25:19;;;;;;;16.77;4.60;;;11.40;99.90;;;;;;6348395;22;20467;-95
2023/01/01 05:27:44;;;;;;;15.32;3.42;;;11.40;99.90;;;;;;6347286;22;20014;-94
2023/01/01 05:30:10;;;;;;;18.40;4.00;;;11.40;99.90;;;;;;6215560;22;20030;-96
2023/01/01 05:32:36;;;;;;;11.30;3.15;;;11.50;99.90;;;;;;6346923;22;20323;-94
2023/01/01 05:35:05;;;;;;;15.82;3.85;;;11.50;99.90;;;;;;6347828;22;20411;-94
2023/01/01 05:37:31;;;;;;;12.85;3.35;;;11.40;99.90;;;;;;6347175;22;20027;-94
2023/01/01 05:39:57;;;;;;;19.88;4.13;;;11.80;99.90;;;;;;6346491;22;20008;-92
2023/01/01 05:42:22;;;;;;;9.68;3.05;;;11.50;99.90;;;;;;6347114;22;20049;-94
2023/01/01 05:44:48;;;;;;;15.88;3.70;;;11.40;99.90;;;;;;6214889;22;20019;-94
2023/01/01 05:47:16;;;;;;;14.13;3.30;;;11.50;99.90;;;;;;6347478;22;20080;-93
2023/01/01 05:49:42;;;;;;;14.98;2.85;;;11.40;99.90;;;;;;6347679;22;20016;-94
2023/01/01 05:52:08;;;;;;;13.23;3.40;;;11.40;99.90;;;;;;6215045;22;20026;-94
2023/01/01 05:54:33;;;;;;;15.27;3.35;;;11.40;99.90;;;;;;6346452;22;20478;-95
2023/01/01 05:56:59;;;;;;;16.67;3.17;;;11.40;99.90;;;;;;6346460;22;20020;-93
2023/01/01 05:59:24;;;;;;;11.10;2.55;;;11.50;99.90;;;;;;6347857;22;20014;-94
2023/01/01 06:01:50;;;;;;;17.20;2.78;;;11.40;99.90;;;;;;6214345;22;20028;-93
2023/01/01 06:04:16;;;;;;;12.80;2.42;;;11.50;99.90;;;;;;6348264;22;20098;-94
2023/01/01 06:06:42;;;;;;;13.43;2.20;;;11.50;99.90;;;;;;6215032;22;20020;-95
2023/01/01 06:09:09;;;;;;;7.80;1.77;;;11.50;99.90;;;;;;6347045;22;20016;-92
2023/01/01 06:11:35;;;;;;;9.10;1.95;;;11.50;99.90;;;;;;6348167;22;20459;-94
2023/01/01 06:14:00;;;;;;;12.45;2.22;;;11.40;99.90;;;;;;6348226;22;20012;-93
2023/01/01 06:16:28;;;;;;;9.77;1.70;;;11.40;99.90;;;;;;6349027;22;20361;-95
2023/01/01 06:18:54;;;;;;;9.00;1.80;;;11.40;99.90;;;;;;6215999;22;20012;-94
2023/01/01 06:21:22;;;;;;;11.60;2.33;;;11.40;99.90;;;;;;6349881;22;20022;-93
2023/01/01 06:23:48;;;;;;;8.20;1.80;;;11.30;99.90;;;;;;6215595;22;20015;-94
2023/01/01 06:26:18;;;;;;;10.05;2.08;;;11.30;99.90;;;;;;6350635;22;20068;-93
2023/01/01 06:28:44;;;;;;;9.13;1.80;;;11.30;99.90;;;;;;6347933;22;20015;-93
2023/01/01 06:31:12;;;;;;;12.73;2.47;;;11.30;99.90;;;;;;6350006;22;20039;-93
2023/01/01 06:33:39;;;;;;;10.75;1.70;;;11.30;99.90;;;;;;6216454;22;20020;-93
2023/01/01 06:36:07;;;;;;;13.10;1.90;;;11.30;99.90;;;;;;6215004;22;20060;-92
2023/01/01 06:38:36;;;;;;;12.18;1.52;;;11.30;99.90;;;;;;6349549;22;20011;-92
2023/01/01 06:41:04;;;;;;;11.05;1.77;;;11.30;99.90;;;;;;6215802;22;20069;-94
2023/01/01 06:43:32;;;;;;;11.68;1.85;;;11.30;99.90;;;;;;6348464;22;20018;-94
2023/01/01 06:45:59;;;;;;;11.43;1.80;;;11.30;99.90;;;;;;6349043;22;20024;-92
2023/01/01 06:48:26;;;;;;;14.55;2.30;;;11.30;99.90;;;;;;6349615;22;20016;-93
2023/01/01 06:50:52;;;;;;;14.25;1.90;;;11.20;99.90;;;;;;6348310;22;20102;-93
2023/01/01 06:53:17;;;;;;;13.25;1.80;;;11.30;99.90;;;;;;6349583;22;20095;-93
2023/01/01 06:55:48;;;;;;;11.95;2.03;;;11.20;99.90;;;;;;6216533;22;20077;-92
2023/01/01 06:58:13;;;;;;;10.23;1.98;;;11.20;99.90;;;;;;6348005;22;20438;-93
2023/01/01 07:00:39;;;;;;;13.48;2.00;;;11.20;99.90;;;;;;6349580;22;20095;-93
2023/01/01 07:03:05;;;;;;;13.73;1.85;;;11.20;99.90;;;;;;6215530;22;20042;-92
2023/01/01 07:05:30;;;;;;;13.13;2.17;;;11.20;99.90;;;;;;6348687;22;20055;-90
2023/01/01 07:07:56;;;;;;;11.77;2.35;;;11.10;99.90;;;;;;6348178;22;20020;-93
2023/01/01 07:10:22;;;;;;;9.52;1.90;;;11.10;99.90;;;;;;6215900;22;20107;-92
2023/01/01 07:12:47;;;;;;;10.88;1.80;;;11.10;99.90;;;;;;6215397;22;20098;-93
2023/01/01 07:15:13;;;;;;;17.50;2.30;;;11.10;99.90;;;;;;6349092;22;20027;-94
2023/01/01 07:17:39;;;;;;;14.38;2.50;;;11.10;99.90;;;;;;6215773;22;20015;-94
2023/01/01 07:20:05;;;;;;;15.80;2.63;;;11.10;99.90;;;;;;6348444;22;20011;-91
2023/01/01 07:22:30;;;;;;;17.02;2.22;;;11.10;99.90;;;;;;6216400;22;20019;-92
2023/01/01 07:24:56;;;;;;;14.98;2.63;;;11.10;99.90;;;;;;6347953;22;20504;-93
2023/01/01 07:27:22;;;;;;;16.25;2.60;;;11.00;99.90;;;;;;6348415;22;20018;-92
2023/01/01 07:29:47;;;;;;;14.75;2.00;;;11.00;99.90;;;;;;6348566;22;20019;-92
2023/01/01 07:32:13;;;;;;;15.48;2.35;;;11.00;99.90;;;;;;6348014;22;20034;-91
2023/01/01 07:34:38;;;;;;;16.10;2.65;;;11.00;99.90;;;;;;6349408;22;20051;-91
2023/01/01 07:37:04;;;;;;;23.08;3.20;;;10.90;99.90;;;;;;6215417;22;20027;-91
2023/01/01 07:39:30;;;;;;;18.70;3.40;;;10.90;99.90;;;;;;6347558;22;20016;-93
2023/01/01 07:41:55;;;;;;;19.80;3.05;;;10.90;99.90;;;;;;6347441;22;20031;-94
2023/01/01 07:44:21;;;;;;;20.13;3.08;;;10.90;99.90;;;;;;6348860;22;20023;-92
2023/01/01 07:46:47;;;;;;;16.38;2.80;;;10.90;99.90;;;;;;6214098;22;20020;-92
2023/01/01 07:49:12;;;;;;;20.05;3.00;;;10.80;99.90;;;;;;6348730;22;20129;-93
2023/01/01 07:51:38;;;;;;;20.92;3.38;;;10.80;99.90;;;;;;6348381;22;20377;-92
2023/01/01 07:54:04;;;;;;;16.25;3.03;;;10.80;99.90;;;;;;6347323;22;20078;-92
2023/01/01 07:56:29;;;;;;;20.55;2.90;;;10.80;99.90;;;;;;6348560;22;20444;-94
2023/01/01 07:58:55;;;;;;;27.75;3.75;;;10.70;99.90;;;;;;6346742;22;20012;-92
2023/01/01 08:01:21;;;;;;;21.85;2.63;;;10.70;99.90;;;;;;6215473;22;20030;-93
2023/01/01 08:03:51;;;;;;;20.25;3.13;;;10.70;99.90;;;;;;6348064;22;20027;-92
2023/01/01 08:06:17;;;;;;;17.75;2.58;;;10.70;99.90;;;;;;6362696;22;20011;-92
2023/01/01 08:08:43;;;;;;;21.55;2.80;;;10.70;99.90;;;;;;6373684;22;20059;-94
2023/01/01 08:11:08;;;;;;;20.85;3.20;;;10.70;99.90;;;;;;6375402;22;20017;-91
2023/01/01 08:13:34;;;;;;;20.67;2.63;;;10.70;99.90;;;;;;6374665;22;20021;-94
2023/01/01 08:16:00;;;;;;;16.92;2.55;;;10.70;99.90;;;;;;6374403;22;20021;-93
2023/01/01 08:18:26;;;;;;;21.67;3.53;;;10.70;99.90;;;;;;6375422;22;20009;-92
2023/01/01 08:20:52;;;;;;;23.48;4.22;;;10.80;99.90;;;;;;6373561;22;20125;-93
2023/01/01 08:23:17;;;;;;;24.90;3.65;;;10.70;99.90;;;;;;6375565;22;20006;-93
2023/01/01 08:25:43;;;;;;;25.05;3.33;;;10.60;99.90;;;;;;6375040;22;20033;-93
2023/01/01 08:28:09;;;;;;;21.50;3.83;;;10.70;99.90;;;;;;6373618;22;20031;-93
2023/01/01 08:30:35;;;;;;;22.70;3.97;;;10.60;99.90;;;;;;6375651;22;20036;-92
2023/01/01 08:33:00;;;;;;;27.15;3.92;;;10.60;99.90;;;;;;6374168;22;20113;-92
2023/01/01 08:35:26;;;;;;;24.08;3.88;;;10.60;99.90;;;;;;6374221;22;20017;-92
2023/01/01 08:37:52;;;;;;;28.63;3.50;;;10.70;99.90;;;;;;6374315;22;20100;-93
2023/01/01 08:40:18;;;;;;;23.27;4.10;;;10.70;99.90;;;;;;6375044;22;20091;-93
2023/01/01 08:42:44;;;;;;;23.75;3.60;;;10.70;99.90;;;;;;6375671;22;20097;-93
2023/01/01 08:45:10;;;;;;;28.42;3.97;;;10.70;99.90;;;;;;6375244;22;20522;-93
2023/01/01 08:47:35;;;;;;;19.17;3.22;;;10.70;99.90;;;;;;6375027;22;20051;-92
2023/01/01 08:50:01;;;;;;;30.23;4.45;;;10.80;99.90;;;;;;6373844;22;20459;-94
2023/01/01 08:52:27;;;;;;;24.98;4.20;;;10.70;99.90;;;;;;6376500;22;20009;-94
2023/01/01 08:54:52;;;;;;;23.42;3.63;;;10.70;99.90;;;;;;6378297;22;20029;-94
2023/01/01 08:57:18;;;;;;;25.80;4.50;;;10.70;99.90;;;;;;6373847;22;20018;-93
2023/01/01 08:59:44;;;;;;;29.73;4.43;;;10.70;99.90;;;;;;6374544;22;20016;-92
2023/01/01 09:02:12;;;;;;;26.15;4.53;;;10.80;99.90;;;;;;6374869;22;20013;-95
2023/01/01 09:04:38;;;;;;;26.25;4.30;;;10.70;99.90;;;;;;6373334;22;20013;-93
2023/01/01 09:07:03;;;;;;;26.27;3.72;;;10.80;99.90;;;;;;6374440;22;20060;-92
2023/01/01 09:09:29;;;;;;;21.48;3.22;;;10.80;99.90;;;;;;6374899;22;20020;-93
2023/01/01 09:12:00;;;;;;;25.17;3.08;;;10.80;99.90;;;;;;6373073;22;20032;-94
2023/01/01 09:14:26;;;;;;;26.88;4.55;;;10.80;99.90;;;;;;6375663;22;20013;-94
2023/01/01 09:16:51;;;;;;;23.95;4.30;;;10.80;99.90;;;;;;6374732;22;20463;-94
2023/01/01 09:19:17;;;;;;;25.60;4.07;;;10.80;99.90;;;;;;6374736;22;20016;-95
2023/01/01 09:21:43;;;;;;;19.63;3.25;;;10.80;99.90;;;;;;6377069;22;20017;-94
2023/01/01 09:24:10;;;;;;;28.20;4.13;;;10.80;99.90;;;;;;6374179;22;20096;-92
2023/01/01 09:26:35;;;;;;;29.75;4.28;;;10.80;99.90;;;;;;6374914;22;20449;-95
2023/01/01 09:29:01;;;;;;;21.85;3.40;;;10.80;99.90;;;;;;6373922;22;20021;-93
2023/01/01 09:31:27;;;;;;;21.63;3.90;;;10.80;99.90;;;;;;6374327;22;20021;-92
2023/01/01 09:33:53;;;;;;;25.55;4.10;;;10.80;99.90;;;;;;6375587;22;20017;-90
2023/01/01 09:36:20;;;;;;;25.42;3.90;;;10.80;99.90;;;;;;6374629;22;20114;-91
2023/01/01 09:38:50;;;;;;;24.55;3.97;;;10.80;99.90;;;;;;6372454;22;20013;-91
2023/01/01 09:41:23;;;;;;;23.23;3.67;;;10.80;99.90;;;;;;6374347;22;20022;-90
2023/01/01 09:44:00;;;;;;;22.70;3.45;;;10.90;99.90;;;;;;6372507;22;20014;-91
2023/01/01 09:46:26;;;;;;;25.33;4.25;;;10.90;99.90;;;;;;6373746;22;20017;-91
2023/01/01 09:49:02;;;;;;;22.30;3.22;;;10.90;99.90;;;;;;6373898;22;20013;-90
2023/01/01 09:51:32;;;;;;;18.90;3.03;;;11.00;99.90;;;;;;6374523;22;20017;-90
2023/01/01 09:54:04;;;;;;;23.13;4.20;;;11.00;99.90;;;;;;6373041;22;20476;-90
2023/01/01 09:56:33;;;;;;;27.42;4.40;;;11.00;99.90;;;;;;6373568;22;20013;-91
2023/01/01 09:58:59;;;;;;;24.75;3.53;;;11.00;99.90;;;;;;6375573;22;20017;-91
2023/01/01 10:01:47;;;;;;;21.60;4.03;;;11.00;99.90;;;;;;6373100;22;20082;-90
2023/01/01 10:04:22;;;;;;;26.55;4.15;;;11.10;99.90;;;;;;6374401;22;20088;-90
2023/01/01 10:07:03;;;;;;;24.88;3.70;;;11.10;99.90;;;;;;6371932;22;20020;-90
2023/01/01 10:09:37;;;;;;;21.60;3.65;;;11.10;99.90;;;;;;6373512;22;20040;-89
2023/01/01 10:12:16;;;;;;;23.02;3.25;;;11.20;99.90;;;;;;6372257;22;20508;-88
2023/01/01 10:14:49;;;;;;;32.60;4.35;;;11.20;99.90;;;;;;6373285;22;20005;-90
2023/01/01 10:17:29;;;;;;;27.77;4.72;;;11.20;99.90;;;;;;6374056;22;20020;-90
2023/01/01 10:20:01;;;;;;;24.90;3.90;;;11.20;99.90;;;;;;6373481;22;20390;-90
2023/01/01 10:22:36;;;;;;;22.55;4.72;;;11.30;99.90;;;;;;6372471;22;20473;-88
2023/01/01 10:25:06;;;;;;;29.35;3.85;;;11.30;99.90;;;;;;6372932;22;20025;-89
2023/01/01 10:27:40;;;;;;;27.45;3.85;;;11.30;99.90;;;;;;6371899;22;20436;-88
2023/01/01 10:30:14;;;;;;;26.05;4.10;;;11.30;99.90;;;;;;6372031;22;20013;-88
2023/01/01 10:32:42;;;;;;;25.15;4.05;;;11.30;99.90;;;;;;6370205;22;20460;-90
2023/01/01 10:35:13;;;;;;;25.58;4.20;;;11.40;99.90;;;;;;6370716;22;20049;-88
2023/01/01 10:37:39;;;;;;;26.58;3.65;;;11.40;99.90;;;;;;6372694;22;20088;-88
2023/01/01 10:40:16;;;;;;;27.77;4.13;;;11.30;99.90;;;;;;6372170;22;20014;-87
2023/01/01 10:42:47;;;;;;;28.83;4.47;;;11.30;99.90;;;;;;6370995;22;20021;-89
2023/01/01 10:45:15;;;;;;;19.33;3.65;;;11.30;99.90;;;;;;6373639;22;20444;-89
2023/01/01 10:48:18;;;;;;;28.40;4.00;;;11.20;99.90;;;;;;6372841;22;20114;-87
2023/01/01 10:50:53;;;;;;;30.23;3.78;;;11.20;99.90;;;;;;6373202;22;20016;-90
2023/01/01 10:53:25;;;;;;;22.35;3.40;;;11.20;99.90;;;;;;6373871;22;20017;-90
2023/01/01 10:55:57;;;;;;;25.80;4.72;;;11.10;99.90;;;;;;6372743;22;20374;-90
2023/01/01 10:58:31;;;;;;;25.70;3.30;;;11.10;99.90;;;;;;6373543;22;20047;-91
2023/01/01 11:00:58;;;;;;;25.13;3.42;;;11.10;99.90;;;;;;6374674;22;20052;-87
2023/01/01 11:03:24;;;;;;;20.65;3.15;;;11.10;99.90;;;;;;6371133;22;20040;-89
2023/01/01 11:06:04;;;;;;;25.98;3.75;;;11.20;99.90;;;;;;6372374;22;20373;-90
2023/01/01 11:08:33;;;;;;;25.38;4.18;;;11.20;99.90;;;;;;6373821;22;20021;-87
2023/01/01 11:11:01;;;;;;;24.10;3.00;;;11.20;99.90;;;;;;6400488;22;20017;-87
2023/01/01 11:13:28;;;;;;;19.38;3.28;;;11.20;99.90;;;;;;6375767;22;20429;-88
2023/01/01 11:15:54;;;;;;;25.95;3.30;;;11.30;99.90;;;;;;6375020;22;20013;-88
2023/01/01 11:18:24;;;;;;;17.83;2.25;;;11.30;99.90;;;;;;6374953;22;20021;-88
2023/01/01 11:20:53;;;;;;;23.13;2.78;;;11.30;99.90;;;;;;6375546;22;20010;-88
2023/01/01 11:23:29;;;;;;;19.48;3.03;;;11.30;99.90;;;;;;6375922;22;20182;-88
2023/01/01 11:25:59;;;;;;;16.05;2.75;;;11.30;99.90;;;;;;6401843;22;20337;-89
2023/01/01 11:28:25;;;;;;;219.80;28.75;;;11.40;99.90;;;;;;6375924;22;20005;-88
2023/01/01 11:31:14;;;;;;;25.90;4.50;;;11.40;99.90;;;;;;6375614;22;20406;-89
2023/01/01 11:33:52;;;;;;;22.60;3.70;;;11.40;99.90;;;;;;6375492;22;20157;-88
2023/01/01 11:36:25;;;;;;;16.70;2.67;;;11.40;99.90;;;;;;6376535;22;20055;-90
2023/01/01 11:39:04;;;;;;;;;;;11.40;99.90;;;;;;6375667;22;20345;-89
2023/01/01 11:41:45;;;;;;;27.33;3.97;;;11.30;99.90;;;;;;6376542;22;19962;-89
2023/01/01 11:44:21;;;;;;;25.00;3.08;;;11.30;99.90;;;;;;6376621;22;20070;-88
2023/01/01 11:46:47;;;;;;;14.68;2.55;;;11.30;99.90;;;;;;6376605;22;20021;-88
2023/01/01 11:49:20;;;;;;;22.75;2.60;;;11.30;99.90;;;;;;6376738;22;20009;-88
2023/01/01 11:51:45;;;;;;;;;;;11.30;99.90;;;;;;6376273;22;20014;-89
2023/01/01 11:54:31;;;;;;;1999.90;451.55;;;11.30;99.90;;;;;;6376474;22;19956;-89
2023/01/01 11:57:08;;;;;;;25.00;4.18;;;11.40;99.90;;;;;;6374748;22;20319;-90
2023/01/01 11:59:46;;;;;;;19.38;3.38;;;11.40;99.90;;;;;;6375948;22;20040;-88
2023/01/01 12:02:23;;;;;;;16.75;3.35;;;11.40;99.90;;;;;;6402028;22;20009;-88
2023/01/01 12:04:56;;;;;;;19.67;3.22;;;11.40;99.90;;;;;;6375423;22;20021;-89
2023/01/01 12:07:28;;;;;;;17.38;2.92;;;11.40;99.90;;;;;;6375210;22;20084;-90
2023/01/01 12:09:57;;;;;;;19.67;2.83;;;11.50;99.90;;;;;;6375192;22;20021;-87
2023/01/01 12:12:29;;;;;;;14.18;2.30;;;11.60;99.90;;;;;;6373305;22;20076;-87
2023/01/01 12:15:02;;;;;;;27.77;3.75;;;11.60;99.90;;;;;;6399217;22;20017;-88
2023/01/01 12:17:38;;;;;;;25.98;2.88;;;11.70;99.90;;;;;;6375359;22;20093;-89
2023/01/01 12:20:15;;;;;;;19.38;3.00;;;11.60;99.90;;;;;;6373912;22;20112;-88
2023/01/01 12:22:41;;;;;;;21.70;2.83;;;11.70;99.90;;;;;;6375153;22;20017;-84
2023/01/01 12:25:12;;;;;;;20.17;2.78;;;11.70;99.90;;;;;;6376469;22;20457;-89
2023/01/01 12:27:55;;;;;;;23.23;3.47;;;11.70;99.90;;;;;;6374450;22;20015;-89
2023/01/01 12:30:34;;;;;;;19.17;2.92;;;11.70;99.90;;;;;;6375519;22;20022;-89
2023/01/01 12:33:17;;;;;;;20.70;2.85;;;11.60;99.90;;;;;;6374087;22;20539;-90
2023/01/01 12:35:58;;;;;;;19.33;3.15;;;11.60;99.90;;;;;;6375430;22;20040;-91
2023/01/01 12:38:32;;;;;;;20.63;4.05;;;11.60;99.90;;;;;;6376527;22;20070;-92
2023/01/01 12:41:09;;;;;;;25.20;3.00;;;11.60;99.90;;;;;;6376404;22;20020;-90
2023/01/01 12:44:02;;;;;;;20.63;2.70;;;11.70;99.90;;;;;;6375890;22;20017;-90
2023/01/01 12:46:33;;;;;;;22.08;3.25;;;11.80;99.90;;;;;;6375536;22;20101;-89
2023/01/01 12:49:16;;;;;;;17.25;2.92;;;11.80;99.90;;;;;;6401330;22;20014;-89
2023/01/01 12:52:09;;;;;;;22.05;3.13;;;11.80;99.90;;;;;;6376543;22;20133;-90
2023/01/01 12:54:51;;;;;;;22.95;3.00;;;11.70;99.90;;;;;;6375911;22;20024;-89
2023/01/01 12:57:29;;;;;;;18.02;2.75;;;11.70;99.90;;;;;;6401917;22;20065;-91
2023/01/01 12:59:56;;;;;;;18.33;3.45;;;11.70;99.90;;;;;;6376706;22;20013;-90
2023/01/01 13:02:25;;;;;;;21.33;3.05;;;11.60;99.90;;;;;;6375392;22;20448;-89